Погода Роборена 2 недели

Санта-Крус, Боливия

24 июня-07 июля
  • 24июня
    Сегодня
    +14°
    +32°
    Небольшая облачность
    ВремяПогодаТемператураВлажностьДавлениеВетер, м/сВероятность осадков
    02:00Ясно и безоблачно+24°C61 %732 мм3.0 м/с5 %
    05:00Ясно и безоблачно+23°C66 %732 мм2.9 м/с5 %
    08:00Ясно и безоблачно+24°C61 %734 мм2.5 м/с5 %
    11:00Ясно и безоблачно+28°C44 %734 мм5.5 м/с5 %
    14:00Небольшая облачность+31°C38 %732 мм6.8 м/с5 %
    17:00Небольшая облачность+28°C57 %732 мм5.1 м/с3 %
    20:00Практически безоблачно+23°C71 %734 мм3.0 м/с5 %
    23:00Ясно и безоблачно+19°C80 %735 мм2.7 м/с5 %
  • 25июня
    Вторник
    +11°
    +30°
    Ясно и безоблачно
    ВремяПогодаТемператураВлажностьДавлениеВетер, м/сВероятность осадков
    02:00Небольшая облачность+17°C83 %735 мм3.2 м/с5 %
    05:00Облачно с прояснениями+16°C83 %735 мм2.9 м/с5 %
    08:00Практически безоблачно+17°C77 %736 мм0.5 м/с5 %
    11:00Ясно и безоблачно+20°C59 %736 мм0.2 м/с5 %
    14:00Ясно и безоблачно+27°C47 %733 мм1.4 м/с5 %
    17:00Небольшая облачность+29°C51 %733 мм2.1 м/с5 %
    20:00Практически безоблачно+25°C64 %734 мм1.1 м/с5 %
    23:00Ясно и безоблачно+21°C69 %735 мм2.4 м/с5 %
  • 26июня
    Среда
    +12°
    +26°
    Облачно с прояснениями
    ВремяПогодаТемператураВлажностьДавлениеВетер, м/сВероятность осадков
    02:00Ясно и безоблачно+17°C73 %735 мм3.1 м/с5 %
    05:00Ясно и безоблачно+13°C79 %736 мм3.0 м/с5 %
    08:00Практически безоблачно+13°C75 %738 мм0.5 м/с5 %
    11:00Ясно и безоблачно+19°C56 %738 мм1.2 м/с5 %
    14:00Облачно с прояснениями+24°C47 %736 мм3.0 м/с5 %
    17:00Облачно с прояснениями+26°C50 %735 мм4.0 м/с5 %
    20:00Ясно и безоблачно+21°C59 %736 мм3.2 м/с5 %
    23:00Практически безоблачно+17°C67 %736 мм3.1 м/с5 %
  • 27июня
    Четверг
    +21°
    +33°
    Ясно и безоблачно
    ВремяПогодаТемператураВлажностьДавлениеВетер, м/сВероятность осадков
    02:00Практически безоблачно+15°C73 %735 мм2.4 м/с5 %
    05:00Небольшая облачность+13°C78 %735 мм2.0 м/с5 %
    08:00Ясно и безоблачно+14°C70 %736 мм0.4 м/с5 %
    11:00Ясно и безоблачно+24°C50 %735 мм0.2 м/с5 %
    14:00Ясно и безоблачно+30°C41 %732 мм3.6 м/с5 %
    17:00Практически безоблачно+33°C43 %731 мм5.0 м/с5 %
    20:00Ясно и безоблачно+28°C57 %731 мм3.2 м/с5 %
    23:00Ясно и безоблачно+26°C57 %731 мм4.3 м/с5 %
  • 28июня
    Пятница
    +16°
    +36°
    Облачно с прояснениями
    ВремяПогодаТемператураВлажностьДавлениеВетер, м/сВероятность осадков
    02:00Ясно и безоблачно+24°C63 %730 мм3.4 м/с5 %
    05:00Практически безоблачно+22°C68 %730 мм3.1 м/с5 %
    08:00Практически безоблачно+23°C65 %731 мм2.3 м/с5 %
    11:00Практически безоблачно+31°C43 %731 мм6.6 м/с5 %
    14:00Облачно с прояснениями+35°C31 %729 мм10.4 м/с5 %
    17:00Практически безоблачно+35°C30 %729 мм7.5 м/с5 %
    20:00Ясно и безоблачно+29°C44 %731 мм2.2 м/с5 %
    23:00Ясно и безоблачно+27°C48 %732 мм2.6 м/с5 %
Мы используем cookies
Соглашаюсь